Time;durP1;ratioP1;P1;durP2;ratioP2;P2;SDS_P1;SDS_P2;PMS_P1;PMS_P2;Temp;Humidity;BMP_temperature;BMP_pressure;BME280_temperature;BME280_humidity;BME280_pressure;Samples;Min_cycle;Max_cycle;Signal;HPM_P1;HPM_P2
2022/11/28 00:01:21;;;;;;;4.82;1.95;;;10.90;99.90;;;;;;5072185;28;20035;-81
2022/11/28 00:03:47;;;;;;;2.42;1.67;;;10.70;99.90;;;;;;5071490;28;20450;-81
2022/11/28 00:06:14;;;;;;;2.38;1.50;;;10.70;99.90;;;;;;5072203;28;20029;-81
2022/11/28 00:08:40;;;;;;;5.05;1.77;;;10.90;99.90;;;;;;5072157;28;20024;-81
2022/11/28 00:11:08;;;;;;;2.13;1.63;;;10.70;99.90;;;;;;5072078;28;20017;-80
2022/11/28 00:13:35;;;;;;;2.70;1.65;;;10.80;99.90;;;;;;5072012;28;20469;-81
2022/11/28 00:16:03;;;;;;;2.60;1.70;;;11.00;99.90;;;;;;5072132;28;20039;-81
2022/11/28 00:18:28;;;;;;;3.03;1.52;;;10.90;99.90;;;;;;5059531;28;20115;-81
2022/11/28 00:21:06;;;;;;;2.55;1.58;;;11.10;99.90;;;;;;5050396;28;20076;-81
2022/11/28 00:23:32;;;;;;;2.53;1.48;;;10.90;99.90;;;;;;5051901;28;20372;-81
2022/11/28 00:26:07;;;;;;;2.08;1.60;;;10.90;99.90;;;;;;5051810;28;20033;-81
2022/11/28 00:28:32;;;;;;;3.83;1.67;;;10.90;99.90;;;;;;5051949;28;20473;-81
2022/11/28 00:30:58;;;;;;;4.60;2.10;;;10.90;99.90;;;;;;5051810;28;20028;-81
2022/11/28 00:33:24;;;;;;;1.70;1.35;;;11.00;99.90;;;;;;5061884;28;20497;-81
2022/11/28 00:35:50;;;;;;;2.55;1.42;;;11.00;99.90;;;;;;5071569;28;20024;-81
2022/11/28 00:38:16;;;;;;;2.83;1.50;;;11.00;99.90;;;;;;5071695;28;20024;-81
2022/11/28 00:40:41;;;;;;;2.72;1.08;;;11.10;99.90;;;;;;5071472;28;20043;-81
2022/11/28 00:43:07;;;;;;;4.15;1.60;;;11.20;99.90;;;;;;5071542;28;20085;-81
2022/11/28 00:45:32;;;;;;;1.80;1.20;;;11.30;99.90;;;;;;5071915;28;20484;-81
2022/11/28 00:47:58;;;;;;;3.20;1.58;;;11.30;99.90;;;;;;5071306;28;20017;-81
2022/11/28 00:50:24;;;;;;;2.58;1.70;;;11.20;99.90;;;;;;5071504;28;20435;-81
2022/11/28 00:52:49;;;;;;;2.53;1.60;;;11.20;99.90;;;;;;5071490;28;20362;-81
2022/11/28 00:55:15;;;;;;;1.60;1.23;;;11.30;99.90;;;;;;5070488;28;20488;-81
2022/11/28 00:57:41;;;;;;;2.40;1.10;;;11.60;99.90;;;;;;5071570;28;20021;-81
2022/11/28 01:00:07;;;;;;;2.05;1.20;;;11.20;99.90;;;;;;5071370;28;20036;-81
2022/11/28 01:02:34;;;;;;;2.00;1.50;;;11.20;99.90;;;;;;5071276;28;20054;-81
2022/11/28 01:05:00;;;;;;;2.42;1.40;;;11.30;99.90;;;;;;5071936;28;20025;-81
2022/11/28 01:07:29;;;;;;;2.92;1.40;;;11.30;99.90;;;;;;5075543;28;20116;-81
2022/11/28 01:09:55;;;;;;;2.88;1.65;;;11.30;99.90;;;;;;5074928;28;20389;-81
2022/11/28 01:12:20;;;;;;;3.65;1.42;;;11.40;99.90;;;;;;5075239;28;20039;-81
2022/11/28 01:14:46;;;;;;;2.40;1.10;;;11.60;99.90;;;;;;5075491;28;20029;-81
2022/11/28 01:17:11;;;;;;;2.80;1.42;;;11.70;99.90;;;;;;5072508;28;20028;-81
2022/11/28 01:19:37;;;;;;;1.98;1.10;;;11.30;99.90;;;;;;5054667;28;20040;-81
2022/11/28 01:22:05;;;;;;;2.67;1.40;;;11.20;99.90;;;;;;5054890;28;20112;-81
2022/11/28 01:24:31;;;;;;;2.30;1.20;;;11.30;99.90;;;;;;5054648;28;20025;-81
2022/11/28 01:26:56;;;;;;;2.05;1.20;;;11.30;99.90;;;;;;5054594;28;20028;-81
2022/11/28 01:29:22;;;;;;;2.45;1.30;;;11.30;99.90;;;;;;5054408;28;20059;-81
2022/11/28 01:31:48;;;;;;;2.47;1.38;;;11.50;99.90;;;;;;5054384;28;20052;-81
2022/11/28 01:34:15;;;;;;;3.22;1.40;;;11.40;99.90;;;;;;5072037;28;20102;-81
2022/11/28 01:36:40;;;;;;;2.15;1.20;;;11.30;99.90;;;;;;5074403;28;20035;-81
2022/11/28 01:39:06;;;;;;;2.40;1.38;;;11.30;99.90;;;;;;5074189;28;20400;-81
2022/11/28 01:41:32;;;;;;;1.70;1.45;;;11.30;99.90;;;;;;5074415;28;20041;-81
2022/11/28 01:44:11;;;;;;;2.65;1.40;;;11.20;99.90;;;;;;5074088;28;20029;-81
2022/11/28 01:46:37;;;;;;;3.53;1.60;;;11.10;99.90;;;;;;5074086;28;20577;-80
2022/11/28 01:49:20;;;;;;;4.43;1.35;;;11.10;99.90;;;;;;5074354;28;20017;-81
2022/11/28 01:51:58;;;;;;;4.90;1.38;;;11.20;99.90;;;;;;5073990;28;20029;-81
2022/11/28 01:54:25;;;;;;;3.45;1.35;;;11.00;99.90;;;;;;5074169;28;20502;-81
2022/11/28 01:56:57;;;;;;;2.55;1.30;;;10.90;99.90;;;;;;5072802;28;20403;-81
2022/11/28 01:59:27;;;;;;;3.35;1.63;;;10.90;99.90;;;;;;5074399;28;20040;-81
2022/11/28 02:02:01;;;;;;;3.03;1.40;;;10.80;99.90;;;;;;5073403;28;20070;-81
2022/11/28 02:04:27;;;;;;;1.77;1.45;;;10.80;99.90;;;;;;5073682;28;20024;-81
2022/11/28 02:06:54;;;;;;;3.30;1.42;;;10.70;99.90;;;;;;5074496;28;20035;-79
2022/11/28 02:09:19;;;;;;;2.15;1.50;;;10.80;99.90;;;;;;5074063;28;20433;-80
2022/11/28 02:12:33;;;;;;;1.77;1.40;;;10.80;99.90;;;;;;5073728;28;20109;-81
2022/11/28 02:15:30;;;;;;;3.53;1.40;;;10.70;99.90;;;;;;5031278;28;20087;-81
2022/11/28 02:18:17;;;;;;;2.50;1.60;;;10.60;99.90;;;;;;5023833;28;20084;-81
2022/11/28 02:21:17;;;;;;;2.33;1.50;;;10.50;99.90;;;;;;5011454;28;20034;-81
2022/11/28 02:24:07;;;;;;;2.63;1.58;;;10.60;99.90;;;;;;4972267;28;20027;-81
2022/11/28 02:26:56;;;;;;;2.55;1.42;;;10.60;99.90;;;;;;4972625;28;20058;-81
2022/11/28 02:29:40;;;;;;;5.60;1.50;;;10.60;99.90;;;;;;4972310;28;20070;-80
2022/11/28 02:32:28;;;;;;;3.15;2.13;;;10.50;99.90;;;;;;4972244;28;20023;-81
2022/11/28 02:35:09;;;;;;;2.13;1.50;;;10.50;99.90;;;;;;4972214;28;20527;-81
2022/11/28 02:37:51;;;;;;;1.38;1.20;;;10.50;99.90;;;;;;4972977;28;20042;-81
2022/11/28 02:40:31;;;;;;;2.55;1.60;;;10.50;99.90;;;;;;4972740;28;20081;-81
2022/11/28 02:43:15;;;;;;;2.95;1.42;;;10.50;99.90;;;;;;4972617;28;20118;-81
2022/11/28 02:46:05;;;;;;;2.15;1.40;;;10.50;99.90;;;;;;4972519;28;20077;-81
2022/11/28 02:49:05;;;;;;;2.22;1.40;;;10.50;99.90;;;;;;4972344;28;20089;-82
2022/11/28 02:51:41;;;;;;;1.50;1.15;;;10.50;99.90;;;;;;4953183;29;20079;-81
2022/11/28 02:54:10;;;;;;;2.25;1.40;;;10.50;99.90;;;;;;4953244;28;20039;-81
2022/11/28 02:56:35;;;;;;;2.30;1.30;;;10.40;99.90;;;;;;4952797;28;20027;-81
2022/11/28 02:59:01;;;;;;;2.03;1.50;;;10.60;99.90;;;;;;4952574;29;20032;-81
2022/11/28 03:01:33;;;;;;;3.50;1.58;;;10.30;99.90;;;;;;4983390;28;20054;-81
2022/11/28 03:04:24;;;;;;;3.22;2.20;;;10.10;99.90;;;;;;4991713;28;20022;-81
2022/11/28 03:07:12;;;;;;;4.90;2.53;;;10.10;99.90;;;;;;4991228;28;20023;-80
2022/11/28 03:09:55;;;;;;;4.60;2.65;;;9.90;99.90;;;;;;4991207;28;20388;-81
2022/11/28 03:12:30;;;;;;;3.97;2.75;;;9.80;99.90;;;;;;4991213;28;20031;-81
2022/11/28 03:14:59;;;;;;;3.40;2.38;;;9.80;99.90;;;;;;4991193;28;20090;-81
2022/11/28 03:17:43;;;;;;;5.13;2.22;;;9.70;99.90;;;;;;4994077;28;20029;-81
2022/11/28 03:20:17;;;;;;;3.75;2.20;;;9.80;99.90;;;;;;5010785;28;20041;-81
2022/11/28 03:22:59;;;;;;;4.30;2.50;;;9.70;99.90;;;;;;5010884;28;20390;-81
2022/11/28 03:25:50;;;;;;;4.18;2.10;;;9.90;99.90;;;;;;5010958;28;20073;-81
2022/11/28 03:28:49;;;;;;;4.38;2.80;;;9.70;99.90;;;;;;5036572;28;20029;-81
2022/11/28 03:31:20;;;;;;;3.78;2.72;;;9.60;99.90;;;;;;5052321;28;20075;-81
2022/11/28 03:33:54;;;;;;;3.58;2.72;;;9.60;99.90;;;;;;5066378;28;20052;-81
2022/11/28 03:36:28;;;;;;;3.45;2.63;;;9.60;99.90;;;;;;5072313;28;20114;-81
2022/11/28 03:39:05;;;;;;;5.13;3.13;;;9.80;99.90;;;;;;5072218;28;20024;-81
2022/11/28 03:41:35;;;;;;;3.28;2.53;;;9.60;99.90;;;;;;5071811;28;20067;-80
2022/11/28 03:44:05;;;;;;;4.60;2.90;;;9.20;99.90;;;;;;5070864;28;20043;-81
2022/11/28 03:46:37;;;;;;;4.57;2.50;;;9.00;99.90;;;;;;5072176;28;20025;-81
2022/11/28 03:49:06;;;;;;;4.65;2.58;;;9.40;99.90;;;;;;5072279;28;20048;-81
2022/11/28 03:51:58;;;;;;;4.10;2.72;;;9.20;99.90;;;;;;5072080;28;20028;-81
2022/11/28 03:54:45;;;;;;;5.28;3.08;;;9.00;99.90;;;;;;5072246;28;20028;-80
2022/11/28 03:57:23;;;;;;;3.90;2.67;;;9.10;99.90;;;;;;5066022;28;20108;-81
2022/11/28 03:59:51;;;;;;;4.43;3.05;;;9.30;99.90;;;;;;5052198;28;20036;-81
2022/11/28 04:02:33;;;;;;;5.60;3.38;;;9.20;99.90;;;;;;5052043;28;20114;-81
2022/11/28 04:05:17;;;;;;;4.53;3.13;;;9.20;99.90;;;;;;5051882;28;20029;-81
2022/11/28 04:07:45;;;;;;;4.28;2.90;;;9.20;99.90;;;;;;5051852;28;20025;-81
2022/11/28 04:10:21;;;;;;;5.30;3.10;;;9.20;99.90;;;;;;5051694;28;20085;-81
2022/11/28 04:13:01;;;;;;;5.22;3.10;;;9.20;99.90;;;;;;5052078;28;20025;-81
2022/11/28 04:15:55;;;;;;;4.45;2.85;;;9.20;99.90;;;;;;5051784;28;20036;-81
2022/11/28 04:18:26;;;;;;;3.47;2.72;;;9.20;99.90;;;;;;5051670;28;20029;-81
2022/11/28 04:21:36;;;;;;;6.32;3.20;;;9.30;99.90;;;;;;5052080;28;20555;-81
2022/11/28 04:24:07;;;;;;;4.75;3.08;;;9.30;99.90;;;;;;5029555;28;20073;-80
2022/11/28 04:26:35;;;;;;;3.90;2.90;;;9.30;99.90;;;;;;5029460;28;20112;-81
2022/11/28 04:29:16;;;;;;;6.30;2.97;;;9.30;99.90;;;;;;5029518;28;20045;-81
2022/11/28 04:31:44;;;;;;;4.53;3.20;;;9.30;99.90;;;;;;5029568;28;20025;-81
2022/11/28 04:34:14;;;;;;;5.10;3.15;;;9.40;99.90;;;;;;5029413;28;20053;-81
2022/11/28 04:36:43;;;;;;;7.40;3.42;;;9.20;99.90;;;;;;5029688;28;20037;-81
2022/11/28 04:39:14;;;;;;;4.70;2.80;;;9.20;99.90;;;;;;5030060;28;20033;-81
2022/11/28 04:41:51;;;;;;;5.95;3.15;;;9.20;99.90;;;;;;5033065;28;20034;-81
2022/11/28 04:44:53;;;;;;;6.10;3.67;;;9.30;99.90;;;;;;5033434;28;20060;-81
2022/11/28 04:47:18;;;;;;;3.78;2.55;;;9.40;99.90;;;;;;5033198;28;20049;-81
2022/11/28 04:49:44;;;;;;;4.15;2.80;;;9.30;99.90;;;;;;5033024;28;20049;-81
2022/11/28 04:52:53;;;;;;;4.53;2.70;;;9.30;99.90;;;;;;5033540;28;20030;-81
2022/11/28 04:55:41;;;;;;;6.57;3.17;;;9.50;99.90;;;;;;4993023;28;20030;-81
2022/11/28 04:58:19;;;;;;;9.15;4.50;;;9.40;99.90;;;;;;4916707;29;20044;-81
2022/11/28 05:00:48;;;;;;;8.00;5.28;;;9.30;99.90;;;;;;4905998;29;20058;-81
2022/11/28 05:03:14;;;;;;;7.82;5.35;;;9.60;99.90;;;;;;4897667;29;20047;-81
2022/11/28 05:05:46;;;;;;;12.30;7.07;;;9.70;99.90;;;;;;4897559;29;20040;-81
2022/11/28 05:08:13;;;;;;;8.57;5.90;;;9.30;99.90;;;;;;4897493;29;20024;-81
2022/11/28 05:10:38;;;;;;;10.85;6.63;;;9.70;99.90;;;;;;4897531;29;20024;-81
2022/11/28 05:13:04;;;;;;;7.55;6.00;;;9.30;99.90;;;;;;4897485;29;20046;-81
2022/11/28 05:15:30;;;;;;;10.90;6.75;;;9.20;99.90;;;;;;4897676;29;20041;-81
2022/11/28 05:17:56;;;;;;;8.80;5.65;;;9.20;99.90;;;;;;4897672;29;20033;-81
2022/11/28 05:20:21;;;;;;;8.73;5.57;;;9.50;99.90;;;;;;4897264;29;20048;-81
2022/11/28 05:22:47;;;;;;;5.63;4.40;;;9.40;99.90;;;;;;4897126;29;20549;-80
2022/11/28 05:25:13;;;;;;;7.10;3.80;;;9.20;99.90;;;;;;4908374;28;20523;-82
2022/11/28 05:27:38;;;;;;;6.13;3.72;;;9.30;99.90;;;;;;4954338;28;20085;-81
2022/11/28 05:30:05;;;;;;;4.95;3.53;;;9.30;99.90;;;;;;4954352;29;20035;-81
2022/11/28 05:32:31;;;;;;;5.78;3.80;;;9.30;99.90;;;;;;4953958;28;20069;-81
2022/11/28 05:34:57;;;;;;;4.65;3.38;;;9.40;99.90;;;;;;4997682;28;20103;-81
2022/11/28 05:37:24;;;;;;;5.95;4.00;;;9.60;99.90;;;;;;5054439;28;20037;-81
2022/11/28 05:39:50;;;;;;;9.95;5.13;;;9.30;99.90;;;;;;5053817;28;20029;-81
2022/11/28 05:42:16;;;;;;;8.38;4.60;;;9.40;99.90;;;;;;5054480;28;20032;-81
2022/11/28 05:44:41;;;;;;;10.88;5.18;;;9.40;99.90;;;;;;5054376;28;20434;-81
2022/11/28 05:47:07;;;;;;;8.25;4.43;;;9.50;99.90;;;;;;5054279;28;20473;-81
2022/11/28 05:49:32;;;;;;;7.82;4.70;;;9.10;99.90;;;;;;5054289;28;20494;-81
2022/11/28 05:51:58;;;;;;;5.80;3.70;;;9.10;99.90;;;;;;5053216;28;20021;-81
2022/11/28 05:54:24;;;;;;;4.82;3.00;;;9.20;99.90;;;;;;5053947;28;20120;-80
2022/11/28 05:56:50;;;;;;;4.53;2.88;;;9.00;99.90;;;;;;5054353;28;20036;-81
2022/11/28 05:59:15;;;;;;;7.00;3.60;;;9.20;99.90;;;;;;5053897;28;20078;-81
2022/11/28 06:01:41;;;;;;;7.13;3.53;;;9.10;99.90;;;;;;5053852;28;20033;-81
2022/11/28 06:04:06;;;;;;;7.05;3.92;;;9.10;99.90;;;;;;5052547;28;20403;-81
2022/11/28 06:06:33;;;;;;;8.02;3.55;;;9.10;99.90;;;;;;5053645;28;20036;-81
2022/11/28 06:08:59;;;;;;;4.72;3.42;;;9.10;99.90;;;;;;5053721;28;20028;-81
2022/11/28 06:11:27;;;;;;;5.40;3.65;;;9.20;99.90;;;;;;5053755;28;20021;-81
2022/11/28 06:13:52;;;;;;;5.85;3.78;;;9.20;99.90;;;;;;5053629;28;20017;-81
2022/11/28 06:16:24;;;;;;;8.30;4.18;;;9.20;99.90;;;;;;5053918;28;20025;-81
2022/11/28 06:18:58;;;;;;;6.18;4.03;;;9.20;99.90;;;;;;5053355;28;20057;-81
2022/11/28 06:21:24;;;;;;;6.40;4.18;;;9.10;99.90;;;;;;5053074;28;20064;-81
2022/11/28 06:23:50;;;;;;;9.00;3.83;;;9.30;99.90;;;;;;5053339;28;20059;-81
2022/11/28 06:26:19;;;;;;;7.15;4.00;;;9.10;99.90;;;;;;5053789;28;20108;-81
2022/11/28 06:28:44;;;;;;;7.63;4.22;;;9.50;99.90;;;;;;5053212;28;20100;-81
2022/11/28 06:31:12;;;;;;;6.80;3.85;;;9.20;99.90;;;;;;5053432;28;20104;-81
2022/11/28 06:33:38;;;;;;;6.38;3.60;;;9.20;99.90;;;;;;5053102;28;20071;-81
2022/11/28 06:36:05;;;;;;;5.75;3.83;;;9.30;99.90;;;;;;5052901;28;20017;-81
2022/11/28 06:38:31;;;;;;;5.75;4.03;;;9.30;99.90;;;;;;5052070;28;20443;-81
2022/11/28 06:40:59;;;;;;;5.93;4.07;;;9.30;99.90;;;;;;5053107;28;20029;-81
2022/11/28 06:43:25;;;;;;;7.45;4.15;;;9.40;99.90;;;;;;5053040;28;20489;-81
2022/11/28 06:45:51;;;;;;;7.10;4.28;;;9.30;99.90;;;;;;5052942;28;20546;-81
2022/11/28 06:48:18;;;;;;;5.55;3.67;;;9.40;99.90;;;;;;5052858;28;20029;-81
2022/11/28 06:50:43;;;;;;;7.95;3.58;;;9.30;99.90;;;;;;5052748;28;20086;-81
2022/11/28 06:53:09;;;;;;;6.10;3.70;;;9.20;99.90;;;;;;5053053;28;20024;-81
2022/11/28 06:55:35;;;;;;;7.03;4.00;;;9.20;99.90;;;;;;5052716;28;20036;-82
2022/11/28 06:58:01;;;;;;;4.53;3.20;;;9.30;99.90;;;;;;5052757;28;20028;-81
2022/11/28 07:00:26;;;;;;;7.65;3.75;;;9.70;99.90;;;;;;5052495;28;20044;-81
2022/11/28 07:02:52;;;;;;;7.57;3.88;;;9.30;99.90;;;;;;5051838;28;20021;-81
2022/11/28 07:05:20;;;;;;;5.53;3.60;;;9.30;99.90;;;;;;5052634;28;20404;-81
2022/11/28 07:07:47;;;;;;;6.05;3.80;;;9.20;99.90;;;;;;5052406;28;20110;-81
2022/11/28 07:10:13;;;;;;;8.38;3.70;;;9.30;99.90;;;;;;5052571;28;20456;-81
2022/11/28 07:12:39;;;;;;;5.80;3.63;;;9.40;99.90;;;;;;5052743;28;20086;-81
2022/11/28 07:15:08;;;;;;;5.78;3.38;;;9.40;99.90;;;;;;5053649;28;20481;-81
2022/11/28 07:17:34;;;;;;;4.95;3.47;;;9.40;99.90;;;;;;5052155;28;20021;-81
2022/11/28 07:20:00;;;;;;;16.63;9.88;;;9.50;99.90;;;;;;5052032;28;20033;-81
2022/11/28 07:22:26;;;;;;;6.75;3.90;;;9.50;99.90;;;;;;5052363;28;20071;-81
2022/11/28 07:24:51;;;;;;;6.55;3.38;;;9.70;99.90;;;;;;5051534;28;20037;-81
2022/11/28 07:27:17;;;;;;;6.68;3.70;;;9.50;99.90;;;;;;5052720;28;20474;-81
2022/11/28 07:29:43;;;;;;;6.65;3.28;;;9.50;99.90;;;;;;5052260;28;20021;-81
2022/11/28 07:32:09;;;;;;;8.23;3.83;;;9.80;99.90;;;;;;5052536;28;20540;-81
2022/11/28 07:34:35;;;;;;;4.55;2.78;;;9.60;99.90;;;;;;5071897;28;20659;-81
2022/11/28 07:37:01;;;;;;;4.75;3.17;;;9.60;99.90;;;;;;5072469;28;20099;-81
2022/11/28 07:39:26;;;;;;;4.07;3.08;;;9.70;99.90;;;;;;5072135;28;20108;-81
2022/11/28 07:41:52;;;;;;;8.02;3.63;;;10.00;99.90;;;;;;5071959;28;20374;-81
2022/11/28 07:44:18;;;;;;;6.57;3.55;;;10.20;99.90;;;;;;5072222;28;20103;-81
2022/11/28 07:46:44;;;;;;;6.90;3.55;;;9.90;99.90;;;;;;5057630;28;20397;-81
2022/11/28 07:49:11;;;;;;;5.50;3.45;;;9.90;99.90;;;;;;5051944;28;20039;-81
2022/11/28 07:51:37;;;;;;;5.97;3.58;;;10.00;99.90;;;;;;5051915;28;20040;-81
2022/11/28 07:54:04;;;;;;;5.07;3.60;;;10.10;99.90;;;;;;5051923;28;20405;-81
2022/11/28 07:56:33;;;;;;;7.43;4.15;;;10.00;99.90;;;;;;5051870;28;20048;-81
2022/11/28 07:58:59;;;;;;;6.57;4.22;;;10.10;99.90;;;;;;5050771;28;20461;-81
2022/11/28 08:01:29;;;;;;;7.10;4.40;;;10.10;99.90;;;;;;5052222;28;20123;-81
2022/11/28 08:03:55;;;;;;;5.95;4.07;;;10.00;99.90;;;;;;5051495;28;20028;-81
2022/11/28 08:06:25;;;;;;;6.57;4.50;;;10.00;99.90;;;;;;5051841;28;20033;-81
2022/11/28 08:08:52;;;;;;;6.80;4.30;;;10.00;99.90;;;;;;5050665;28;20032;-80
2022/11/28 08:11:19;;;;;;;9.15;4.53;;;10.00;99.90;;;;;;5051809;28;20474;-81
2022/11/28 08:13:45;;;;;;;7.32;4.35;;;10.10;99.90;;;;;;5050087;28;20025;-80
2022/11/28 08:16:20;;;;;;;6.28;4.15;;;10.20;99.90;;;;;;5055735;28;20039;-80
2022/11/28 08:18:46;;;;;;;6.68;4.00;;;10.40;99.90;;;;;;5054974;28;20047;-81
2022/11/28 08:21:22;;;;;;;5.78;3.97;;;10.20;99.90;;;;;;5055669;28;20041;-80
2022/11/28 08:23:50;;;;;;;5.15;3.88;;;10.20;99.90;;;;;;5055492;28;20049;-80
2022/11/28 08:26:17;;;;;;;4.10;2.95;;;10.50;99.90;;;;;;5054457;28;20404;-80
2022/11/28 08:28:43;;;;;;;4.22;2.92;;;10.20;99.90;;;;;;5055270;28;20029;-80
2022/11/28 08:31:11;;;;;;;4.03;2.78;;;10.30;99.90;;;;;;5055154;28;20071;-80
2022/11/28 08:33:37;;;;;;;6.05;3.50;;;10.20;99.90;;;;;;5058181;28;20095;-80
2022/11/28 08:36:05;;;;;;;8.18;4.03;;;10.20;99.90;;;;;;5055495;28;20033;-80
2022/11/28 08:38:30;;;;;;;10.07;4.63;;;10.20;99.90;;;;;;5035667;28;20057;-81
2022/11/28 08:41:01;;;;;;;8.18;4.18;;;10.20;99.90;;;;;;5054743;28;20049;-80
2022/11/28 08:43:26;;;;;;;10.77;4.28;;;10.20;99.90;;;;;;5054725;28;20568;-81
2022/11/28 08:45:53;;;;;;;6.70;4.30;;;10.40;99.90;;;;;;5053714;28;20107;-80
2022/11/28 08:48:18;;;;;;;5.97;4.13;;;10.50;99.90;;;;;;5054721;28;20433;-81
2022/11/28 08:50:48;;;;;;;7.13;3.97;;;10.60;99.90;;;;;;5055256;28;20052;-80
2022/11/28 08:53:14;;;;;;;6.35;4.20;;;10.80;99.90;;;;;;5054623;28;20053;-81
2022/11/28 08:55:43;;;;;;;30.15;5.85;;;10.90;99.90;;;;;;5054389;28;20052;-80
2022/11/28 08:58:10;;;;;;;32.03;7.22;;;10.80;99.90;;;;;;5054758;28;20056;-81
2022/11/28 09:00:36;;;;;;;26.67;6.43;;;10.70;99.90;;;;;;5053842;28;20120;-80
2022/11/28 09:03:02;;;;;;;8.60;4.43;;;11.20;99.90;;;;;;5055202;28;20021;-83
2022/11/28 09:05:28;;;;;;;9.95;5.18;;;10.80;99.90;;;;;;5054202;28;20028;-81
2022/11/28 09:07:55;;;;;;;21.25;6.50;;;10.80;99.90;;;;;;5054535;28;20033;-81
2022/11/28 09:10:20;;;;;;;17.00;6.18;;;10.60;99.90;;;;;;5053482;28;20505;-81
2022/11/28 09:12:46;;;;;;;15.07;5.88;;;10.60;99.90;;;;;;5055232;28;20033;-81
2022/11/28 09:15:12;;;;;;;18.65;6.50;;;10.70;99.90;;;;;;5054057;28;20094;-81
2022/11/28 09:17:39;;;;;;;12.73;7.88;;;10.60;99.90;;;;;;5054538;28;20104;-82
2022/11/28 09:20:06;;;;;;;15.00;9.43;;;10.90;99.90;;;;;;5053475;28;20074;-81
2022/11/28 09:22:32;;;;;;;23.13;10.13;;;10.50;99.90;;;;;;5054737;28;20465;-81
2022/11/28 09:24:58;;;;;;;25.13;13.30;;;10.90;99.90;;;;;;5054190;28;20028;-81
2022/11/28 09:27:23;;;;;;;29.27;16.45;;;11.00;99.90;;;;;;5053501;28;20048;-82
2022/11/28 09:29:49;;;;;;;26.23;15.32;;;10.40;99.90;;;;;;5053825;28;20044;-82
2022/11/28 09:32:14;;;;;;;25.42;14.65;;;10.60;99.90;;;;;;5055231;28;20021;-82
2022/11/28 09:34:40;;;;;;;34.83;20.95;;;10.30;99.90;;;;;;5074553;28;20045;-82
2022/11/28 09:37:05;;;;;;;29.67;18.75;;;10.30;99.90;;;;;;5071313;28;20091;-81
2022/11/28 09:39:31;;;;;;;26.92;17.10;;;10.30;99.90;;;;;;5054266;28;20354;-82
2022/11/28 09:42:23;;;;;;;26.40;15.10;;;10.30;99.90;;;;;;5053742;28;20040;-82
2022/11/28 09:44:56;;;;;;;19.67;13.13;;;10.40;99.90;;;;;;5045995;28;20029;-82
2022/11/28 09:47:25;;;;;;;18.80;10.63;;;10.60;99.90;;;;;;5053687;28;20489;-82
2022/11/28 09:49:57;;;;;;;14.52;9.85;;;10.70;99.90;;;;;;5054006;28;20106;-81
2022/11/28 09:52:59;;;;;;;21.95;11.65;;;10.50;99.90;;;;;;5052977;28;20064;-82
2022/11/28 09:55:43;;;;;;;17.90;10.95;;;10.50;99.90;;;;;;5035359;28;20033;-82
2022/11/28 09:58:33;;;;;;;16.50;9.05;;;10.60;99.90;;;;;;5052500;28;20036;-81
2022/11/28 10:01:27;;;;;;;9.52;7.63;;;10.60;99.90;;;;;;5048751;28;20434;-82
2022/11/28 10:04:05;;;;;;;11.18;7.60;;;10.50;99.90;;;;;;5053364;28;20016;-82
2022/11/28 10:06:46;;;;;;;10.98;7.80;;;10.60;99.90;;;;;;5054111;28;20029;-82
2022/11/28 10:09:47;;;;;;;14.82;8.25;;;10.60;99.90;;;;;;5053825;28;20025;-83
2022/11/28 10:12:50;;;;;;;11.65;8.15;;;10.60;99.90;;;;;;5053521;28;20503;-82
2022/11/28 10:15:25;;;;;;;16.10;9.80;;;10.40;99.90;;;;;;5053735;28;20512;-82
2022/11/28 10:18:09;;;;;;;26.40;19.92;;;10.60;99.90;;;;;;5053289;28;20469;-82
2022/11/28 10:20:40;;;;;;;24.05;16.60;;;10.60;99.90;;;;;;5053286;28;20074;-82
2022/11/28 10:23:14;;;;;;;23.63;19.60;;;10.50;99.90;;;;;;5053446;28;20493;-83
2022/11/28 10:25:48;;;;;;;21.05;13.38;;;10.60;99.90;;;;;;5053277;28;20029;-83
2022/11/28 10:28:31;;;;;;;21.60;14.07;;;10.50;99.90;;;;;;5053079;28;20091;-82
2022/11/28 10:31:24;;;;;;;16.63;13.10;;;10.70;99.90;;;;;;5053011;28;20037;-82
2022/11/28 10:33:59;;;;;;;15.57;12.65;;;10.80;99.90;;;;;;5068238;28;20051;-82
2022/11/28 10:36:46;;;;;;;21.35;12.70;;;10.70;99.90;;;;;;5073179;28;20024;-81
2022/11/28 10:39:12;;;;;;;18.00;11.77;;;10.80;99.90;;;;;;5073473;28;20056;-81
2022/11/28 10:42:12;;;;;;;16.25;12.10;;;10.70;99.90;;;;;;5072621;28;20040;-81
2022/11/28 10:45:05;;;;;;;15.15;12.70;;;10.50;99.90;;;;;;5050122;28;20528;-82
2022/11/28 10:47:43;;;;;;;16.80;12.23;;;10.50;99.90;;;;;;5052885;28;20021;-82
2022/11/28 10:50:23;;;;;;;16.85;11.63;;;10.60;99.90;;;;;;5053009;28;20025;-82
2022/11/28 10:53:20;;;;;;;15.80;12.02;;;10.50;99.90;;;;;;5052962;28;20476;-81
2022/11/28 10:56:10;;;;;;;16.90;12.43;;;10.50;99.90;;;;;;5052648;28;20064;-81
2022/11/28 10:59:12;;;;;;;18.70;12.73;;;10.50;99.90;;;;;;5052812;28;20028;-81
2022/11/28 11:01:39;;;;;;;19.55;13.90;;;10.50;99.90;;;;;;5010591;28;20145;-83
2022/11/28 11:04:15;;;;;;;17.15;13.95;;;10.20;99.90;;;;;;5011249;28;20125;-83
2022/11/28 11:06:40;;;;;;;17.33;12.68;;;10.40;99.90;;;;;;5010900;28;20303;-82
2022/11/28 11:09:06;;;;;;;17.00;12.82;;;10.30;99.90;;;;;;5011407;28;20101;-83
2022/11/28 11:11:36;;;;;;;16.70;12.20;;;10.30;99.90;;;;;;5010823;28;20182;-83
2022/11/28 11:14:07;;;;;;;15.85;12.20;;;10.40;99.90;;;;;;5005683;28;20502;-81
2022/11/28 11:16:55;;;;;;;17.08;12.27;;;10.80;99.90;;;;;;5011534;28;20030;-82
2022/11/28 11:19:29;;;;;;;17.38;12.18;;;10.50;99.90;;;;;;5010115;28;20046;-81
2022/11/28 11:22:00;;;;;;;14.23;11.48;;;10.20;99.90;;;;;;5007587;28;20037;-82
2022/11/28 11:24:26;;;;;;;15.07;11.98;;;10.20;99.90;;;;;;5010212;28;20054;-82
2022/11/28 11:26:52;;;;;;;16.52;12.57;;;10.00;99.90;;;;;;5009222;28;20534;-82
2022/11/28 11:29:22;;;;;;;16.70;11.85;;;10.00;99.90;;;;;;5009472;28;20109;-82
2022/11/28 11:31:52;;;;;;;15.98;11.85;;;10.10;99.90;;;;;;5010161;28;20050;-82
2022/11/28 11:34:20;;;;;;;15.98;12.60;;;10.00;99.90;;;;;;5021433;28;20053;-82
2022/11/28 11:36:46;;;;;;;17.20;12.60;;;10.10;99.90;;;;;;5010183;28;20033;-82
2022/11/28 11:39:11;;;;;;;17.05;12.35;;;10.20;99.90;;;;;;5044121;28;20040;-82
2022/11/28 11:41:40;;;;;;;14.02;11.93;;;10.20;99.90;;;;;;5051529;28;20094;-83
2022/11/28 11:44:21;;;;;;;15.35;12.38;;;10.30;99.90;;;;;;5051181;28;20524;-82
2022/11/28 11:46:53;;;;;;;17.00;13.77;;;10.30;99.90;;;;;;5051058;28;20029;-81
2022/11/28 11:49:37;;;;;;;13.18;11.05;;;10.20;99.90;;;;;;5051459;28;20017;-81
2022/11/28 11:52:06;;;;;;;13.07;10.45;;;10.20;99.90;;;;;;5051823;28;20520;-90
2022/11/28 11:54:32;;;;;;;14.05;10.00;;;10.50;99.90;;;;;;5052975;28;20035;-83
2022/11/28 11:56:58;;;;;;;13.88;10.27;;;10.70;99.90;;;;;;5050993;28;20029;-83
2022/11/28 11:59:35;;;;;;;12.63;10.75;;;10.50;99.90;;;;;;5050572;28;20116;-82
2022/11/28 12:02:14;;;;;;;14.35;10.55;;;10.60;99.90;;;;;;5048609;28;20402;-83
2022/11/28 12:04:44;;;;;;;16.60;10.25;;;10.40;99.90;;;;;;5050799;28;20036;-83
2022/11/28 12:07:50;;;;;;;13.57;10.02;;;10.50;99.90;;;;;;5050755;28;20029;-82
2022/11/28 12:10:21;;;;;;;13.85;9.48;;;10.90;99.90;;;;;;5050672;28;20029;-83
2022/11/28 12:12:46;;;;;;;13.18;9.98;;;10.80;99.90;;;;;;5052111;28;20037;-82
2022/11/28 12:15:28;;;;;;;11.88;8.98;;;10.90;99.90;;;;;;5051972;28;20028;-82
2022/11/28 12:18:06;;;;;;;11.05;8.77;;;10.90;99.90;;;;;;5051529;28;20021;-82
2022/11/28 12:21:09;;;;;;;10.55;8.55;;;11.00;99.90;;;;;;5051545;28;20052;-82
2022/11/28 12:23:43;;;;;;;12.95;8.57;;;11.00;99.90;;;;;;5051934;28;20021;-82
2022/11/28 12:26:21;;;;;;;12.88;8.75;;;11.00;99.90;;;;;;5051894;28;20367;-82
2022/11/28 12:29:14;;;;;;;9.20;8.15;;;11.00;99.90;;;;;;5051652;28;20025;-82
2022/11/28 12:32:04;;;;;;;9.57;7.45;;;11.00;99.90;;;;;;5051482;28;20025;-82
2022/11/28 12:35:00;;;;;;;9.02;7.30;;;11.00;99.90;;;;;;5071277;28;20420;-82
2022/11/28 12:37:38;;;;;;;8.82;7.28;;;10.80;99.90;;;;;;5072100;28;20477;-82
2022/11/28 12:40:31;;;;;;;10.85;7.95;;;10.90;99.90;;;;;;5071892;28;20040;-82
2022/11/28 12:43:02;;;;;;;12.43;8.10;;;10.90;99.90;;;;;;5071835;28;20029;-82
2022/11/28 12:45:56;;;;;;;11.55;9.55;;;10.70;99.90;;;;;;5071592;28;20103;-82
2022/11/28 12:48:44;;;;;;;15.43;11.95;;;10.90;99.90;;;;;;5071522;28;20025;-82
2022/11/28 12:51:29;;;;;;;49.97;23.92;;;10.80;99.90;;;;;;5071434;28;20021;-82
2022/11/28 12:54:06;;;;;;;13.23;10.40;;;11.10;99.90;;;;;;5071368;28;20021;-82
2022/11/28 12:56:40;;;;;;;12.75;10.05;;;10.90;99.90;;;;;;5071760;28;20024;-82
2022/11/28 12:59:18;;;;;;;16.98;13.73;;;10.80;99.90;;;;;;5071704;28;20035;-82
2022/11/28 13:02:03;;;;;;;18.40;14.45;;;10.60;99.90;;;;;;5074769;28;20400;-82
2022/11/28 13:04:37;;;;;;;22.92;17.02;;;10.60;99.90;;;;;;5075400;28;20021;-82
2022/11/28 13:07:24;;;;;;;22.75;17.13;;;10.40;99.90;;;;;;5074619;28;20039;-82
2022/11/28 13:10:15;;;;;;;22.30;17.30;;;9.90;99.90;;;;;;5074903;28;20033;-82
2022/11/28 13:12:55;;;;;;;21.17;17.58;;;10.40;99.90;;;;;;5075093;28;20559;-82
2022/11/28 13:15:42;;;;;;;25.45;18.20;;;10.10;99.90;;;;;;5075213;28;20029;-82